Time;durP1;ratioP1;P1;durP2;ratioP2;P2;SDS_P1;SDS_P2;PMS_P1;PMS_P2;Temp;Humidity;BMP_temperature;BMP_pressure;BME280_temperature;BME280_humidity;BME280_pressure;Samples;Min_cycle;Max_cycle;Signal;HPM_P1;HPM_P2
2022/05/16 00:01:40;;;;;;;6.50;2.08;;;14.30;99.90;;;;;;5039833;28;20036;-73
2022/05/16 00:04:06;;;;;;;5.05;1.65;;;14.30;99.90;;;;;;5047230;28;20025;-72
2022/05/16 00:06:31;;;;;;;5.13;1.90;;;14.30;99.90;;;;;;5051426;28;20025;-73
2022/05/16 00:08:57;;;;;;;6.88;2.00;;;14.30;99.90;;;;;;5050215;28;20022;-72
2022/05/16 00:11:23;;;;;;;6.65;1.80;;;14.20;99.90;;;;;;5043906;28;20052;-73
2022/05/16 00:13:49;;;;;;;5.35;2.10;;;14.20;99.90;;;;;;5041920;28;20018;-73
2022/05/16 00:16:14;;;;;;;8.98;2.10;;;14.20;99.90;;;;;;5042244;28;20125;-73
2022/05/16 00:18:40;;;;;;;6.68;1.98;;;14.20;99.90;;;;;;5041300;28;20021;-73
2022/05/16 00:21:05;;;;;;;7.18;2.35;;;14.20;99.90;;;;;;5041353;28;20052;-73
2022/05/16 00:23:31;;;;;;;6.35;1.92;;;14.10;99.90;;;;;;5042250;28;20025;-73
2022/05/16 00:25:57;;;;;;;12.10;2.10;;;14.10;99.90;;;;;;5039084;28;20034;-73
2022/05/16 00:28:22;;;;;;;6.55;2.15;;;14.10;99.90;;;;;;5033315;28;20108;-75
2022/05/16 00:30:48;;;;;;;5.53;2.13;;;14.10;99.90;;;;;;5033169;28;20029;-73
2022/05/16 00:33:14;;;;;;;7.32;1.98;;;14.10;99.90;;;;;;5032699;28;20021;-73
2022/05/16 00:35:40;;;;;;;6.72;2.17;;;14.10;99.90;;;;;;5032413;28;20024;-72
2022/05/16 00:38:05;;;;;;;5.55;2.10;;;14.10;99.90;;;;;;5032321;28;20025;-72
2022/05/16 00:40:31;;;;;;;9.82;2.17;;;14.10;99.90;;;;;;5032241;28;20025;-73
2022/05/16 00:43:03;;;;;;;8.88;2.22;;;14.10;99.90;;;;;;5032262;28;20391;-74
2022/05/16 00:45:28;;;;;;;5.07;1.90;;;14.00;99.90;;;;;;5032075;28;20372;-72
2022/05/16 00:47:54;;;;;;;6.78;2.30;;;14.00;99.90;;;;;;5032524;28;20029;-73
2022/05/16 00:50:20;;;;;;;10.00;2.50;;;14.00;99.90;;;;;;5032368;28;20113;-72
2022/05/16 00:52:49;;;;;;;7.75;2.25;;;13.90;99.90;;;;;;5033304;28;20378;-72
2022/05/16 00:55:20;;;;;;;10.38;2.30;;;13.90;99.90;;;;;;5035266;28;20026;-72
2022/05/16 00:57:50;;;;;;;7.22;2.63;;;13.80;99.90;;;;;;5043859;28;20021;-72
2022/05/16 01:00:23;;;;;;;11.20;2.83;;;13.80;99.90;;;;;;5041048;28;20022;-73
2022/05/16 01:05:41;;;;;;;9.95;2.70;;;13.70;99.90;;;;;;5031644;28;20028;-73
2022/05/16 01:08:12;;;;;;;10.35;2.42;;;13.70;99.90;;;;;;5032083;28;20045;-73
2022/05/16 01:10:39;;;;;;;9.90;2.30;;;13.60;99.90;;;;;;5031830;28;20475;-73
2022/05/16 01:13:05;;;;;;;12.40;2.20;;;13.60;99.90;;;;;;5032298;28;20037;-73
2022/05/16 01:15:38;;;;;;;7.03;2.30;;;13.60;99.90;;;;;;5031818;28;20026;-73
2022/05/16 01:18:06;;;;;;;10.25;2.65;;;13.50;99.90;;;;;;5032484;28;20060;-73
2022/05/16 01:20:42;;;;;;;10.93;2.60;;;13.50;99.90;;;;;;5040445;28;20030;-72
2022/05/16 01:23:08;;;;;;;5.60;2.22;;;13.50;99.90;;;;;;5032505;28;20022;-73
2022/05/16 01:25:34;;;;;;;9.05;2.55;;;13.40;99.90;;;;;;5035200;28;20038;-72
2022/05/16 01:28:04;;;;;;;8.25;2.47;;;13.40;99.90;;;;;;5040284;28;20075;-72
2022/05/16 01:30:47;;;;;;;10.55;2.78;;;13.40;99.90;;;;;;5041087;28;20014;-72
2022/05/16 01:33:20;;;;;;;9.45;2.63;;;13.40;99.90;;;;;;5041967;28;20018;-73
2022/05/16 01:35:46;;;;;;;11.60;3.17;;;13.40;99.90;;;;;;5043071;28;20021;-73
2022/05/16 01:38:26;;;;;;;14.45;2.78;;;13.40;99.90;;;;;;5044954;28;20347;-72
2022/05/16 01:40:59;;;;;;;9.93;3.10;;;13.30;99.90;;;;;;5040840;28;20021;-72
2022/05/16 01:43:35;;;;;;;9.63;2.53;;;13.40;99.90;;;;;;5035246;28;20359;-72
2022/05/16 01:46:01;;;;;;;8.77;2.70;;;13.30;99.90;;;;;;5035514;28;20022;-72
2022/05/16 01:48:30;;;;;;;9.30;2.60;;;13.30;99.90;;;;;;5036786;28;20025;-72
2022/05/16 01:50:59;;;;;;;13.35;3.40;;;13.30;99.90;;;;;;5034036;28;20053;-73
2022/05/16 01:53:24;;;;;;;14.98;3.30;;;13.20;99.90;;;;;;5032206;28;20522;-73
2022/05/16 01:55:49;;;;;;;8.43;2.78;;;13.30;99.90;;;;;;5031220;28;20100;-72
2022/05/16 01:58:15;;;;;;;13.38;3.13;;;13.20;99.90;;;;;;5031496;28;20026;-72
2022/05/16 02:00:41;;;;;;;12.10;3.25;;;13.20;99.90;;;;;;5031127;28;20044;-72
2022/05/16 02:03:06;;;;;;;9.07;2.90;;;13.10;99.90;;;;;;5031345;28;20022;-72
2022/05/16 02:05:32;;;;;;;13.15;3.70;;;13.10;99.90;;;;;;5031044;28;20018;-73
2022/05/16 02:07:58;;;;;;;9.57;3.08;;;13.10;99.90;;;;;;5031119;28;20025;-73
2022/05/16 02:10:25;;;;;;;7.78;2.67;;;13.10;99.90;;;;;;5034175;28;20036;-72
2022/05/16 02:12:53;;;;;;;11.27;3.60;;;13.10;99.90;;;;;;5035148;28;20384;-72
2022/05/16 02:15:21;;;;;;;13.43;3.42;;;13.10;99.90;;;;;;5034936;28;20471;-73
2022/05/16 02:17:47;;;;;;;13.70;3.80;;;13.10;99.90;;;;;;5035089;28;20037;-74
2022/05/16 02:20:13;;;;;;;12.27;3.13;;;13.10;99.90;;;;;;5035904;28;20406;-73
2022/05/16 02:25:23;;;;;;;11.43;3.20;;;13.10;99.90;;;;;;5035073;28;20079;-73
2022/05/16 02:27:51;;;;;;;12.82;3.05;;;13.00;99.90;;;;;;5034762;28;20428;-73
2022/05/16 02:30:18;;;;;;;13.40;3.55;;;13.00;99.90;;;;;;5033825;28;20028;-72
2022/05/16 02:32:43;;;;;;;10.07;2.80;;;13.00;99.90;;;;;;5034812;28;20060;-72
2022/05/16 02:35:09;;;;;;;11.48;3.17;;;13.00;99.90;;;;;;5035639;28;20030;-72
2022/05/16 02:37:36;;;;;;;14.30;3.38;;;13.00;99.90;;;;;;5036317;28;20390;-72
2022/05/16 02:40:02;;;;;;;10.88;2.50;;;13.00;99.90;;;;;;5034524;28;20379;-72
2022/05/16 02:42:28;;;;;;;14.57;3.35;;;13.00;99.90;;;;;;5034372;28;20079;-73
2022/05/16 02:44:53;;;;;;;12.30;3.42;;;12.90;99.90;;;;;;5034271;28;20056;-72
2022/05/16 02:47:21;;;;;;;13.65;3.17;;;12.90;99.90;;;;;;5034283;28;20039;-73
2022/05/16 02:49:48;;;;;;;14.32;3.20;;;12.90;99.90;;;;;;5034243;28;20053;-73
2022/05/16 02:52:13;;;;;;;13.27;3.30;;;12.90;99.90;;;;;;5034501;28;20030;-73
2022/05/16 02:54:39;;;;;;;14.07;3.35;;;12.90;99.90;;;;;;5033612;28;20040;-72
2022/05/16 02:57:06;;;;;;;14.20;3.75;;;12.90;99.90;;;;;;5036342;28;20452;-73
2022/05/16 02:59:32;;;;;;;17.48;3.92;;;12.90;99.90;;;;;;5034785;28;20030;-73
2022/05/16 03:02:03;;;;;;;15.05;3.70;;;12.90;99.90;;;;;;5035796;28;20021;-73
2022/05/16 03:04:30;;;;;;;13.77;3.58;;;12.90;99.90;;;;;;5042638;28;20026;-72
2022/05/16 03:06:55;;;;;;;16.58;3.63;;;12.90;99.90;;;;;;5032459;28;20065;-73
2022/05/16 03:09:21;;;;;;;15.07;3.22;;;12.90;99.90;;;;;;5033769;28;20049;-73
2022/05/16 03:11:48;;;;;;;11.95;3.38;;;12.90;99.90;;;;;;5032696;28;20017;-72
2022/05/16 03:14:13;;;;;;;8.00;2.88;;;12.90;99.90;;;;;;5033963;28;20475;-72
2022/05/16 03:16:39;;;;;;;15.00;3.70;;;12.90;99.90;;;;;;5033240;28;20041;-72
2022/05/16 03:19:05;;;;;;;14.05;3.42;;;12.90;99.90;;;;;;5033588;28;20037;-73
2022/05/16 03:21:31;;;;;;;12.90;3.10;;;12.80;99.90;;;;;;5032544;28;20021;-73
2022/05/16 03:23:58;;;;;;;14.10;4.13;;;12.90;99.90;;;;;;5033809;28;20085;-74
2022/05/16 03:26:24;;;;;;;15.98;4.10;;;12.90;99.90;;;;;;5033378;28;20349;-72
2022/05/16 03:28:50;;;;;;;11.35;3.65;;;12.80;99.90;;;;;;5032218;28;20112;-71
2022/05/16 03:31:16;;;;;;;13.52;3.85;;;12.80;99.90;;;;;;5033411;28;20100;-72
2022/05/16 03:33:41;;;;;;;20.25;3.88;;;12.80;99.90;;;;;;5033614;28;20029;-72
2022/05/16 03:36:07;;;;;;;17.70;3.65;;;12.80;99.90;;;;;;5033449;28;20025;-72
2022/05/16 03:41:17;;;;;;;11.40;3.40;;;12.80;99.90;;;;;;5033924;28;20082;-72
2022/05/16 03:43:43;;;;;;;14.88;3.50;;;12.80;99.90;;;;;;5034198;28;20475;-72
2022/05/16 03:46:09;;;;;;;13.10;3.47;;;12.80;99.90;;;;;;5035318;28;20088;-74
2022/05/16 03:48:35;;;;;;;15.52;3.70;;;12.80;99.90;;;;;;5033106;28;20030;-72
2022/05/16 03:51:03;;;;;;;13.73;3.78;;;12.80;99.90;;;;;;5033247;28;20021;-73
2022/05/16 03:53:29;;;;;;;14.43;6.15;;;12.80;99.90;;;;;;5033177;28;20035;-71
2022/05/16 03:55:54;;;;;;;16.00;5.80;;;12.80;99.90;;;;;;5034589;28;20097;-73
2022/05/16 03:58:20;;;;;;;15.45;3.50;;;12.80;99.90;;;;;;5032030;28;20470;-74
2022/05/16 04:00:46;;;;;;;15.30;3.95;;;12.80;99.90;;;;;;5033043;28;20057;-72
2022/05/16 04:03:14;;;;;;;11.50;3.88;;;12.70;99.90;;;;;;5032849;28;20439;-72
2022/05/16 04:05:39;;;;;;;16.00;4.68;;;12.80;99.90;;;;;;5031283;28;20478;-72
2022/05/16 04:08:06;;;;;;;18.08;6.15;;;12.80;99.90;;;;;;5032912;28;20028;-71
2022/05/16 04:10:31;;;;;;;14.77;3.92;;;12.80;99.90;;;;;;5034043;28;20025;-73
2022/05/16 04:12:57;;;;;;;18.05;4.35;;;12.80;99.90;;;;;;5039041;28;20433;-72
2022/05/16 04:15:24;;;;;;;19.40;3.95;;;12.90;99.90;;;;;;5038839;28;20025;-73
2022/05/16 04:17:50;;;;;;;13.57;3.72;;;12.90;99.90;;;;;;5032018;28;20135;-72
2022/05/16 04:20:17;;;;;;;11.60;3.97;;;12.90;99.90;;;;;;5033340;28;20041;-71
2022/05/16 04:22:43;;;;;;;13.80;4.30;;;12.90;99.90;;;;;;5039305;28;20131;-72
2022/05/16 04:25:15;;;;;;;13.23;3.97;;;13.00;99.90;;;;;;5032999;28;20021;-72
2022/05/16 04:27:41;;;;;;;15.43;4.28;;;13.00;99.90;;;;;;5032672;28;20030;-72
2022/05/16 04:30:08;;;;;;;14.70;3.72;;;13.10;99.90;;;;;;5032983;28;20048;-72
2022/05/16 04:32:34;;;;;;;17.08;3.58;;;13.10;99.90;;;;;;5032539;28;20041;-74
2022/05/16 04:35:01;;;;;;;16.20;4.22;;;13.10;99.90;;;;;;5033229;28;20032;-72
2022/05/16 04:37:32;;;;;;;13.55;4.15;;;13.10;99.90;;;;;;5032794;28;20402;-72
2022/05/16 04:40:02;;;;;;;17.63;4.03;;;13.10;99.90;;;;;;5039069;28;20025;-73
2022/05/16 04:42:40;;;;;;;16.60;4.10;;;13.10;99.90;;;;;;5042081;28;20036;-73
2022/05/16 04:45:26;;;;;;;10.48;3.65;;;13.10;99.90;;;;;;5033617;28;20060;-73
2022/05/16 04:47:55;;;;;;;13.50;4.47;;;13.20;99.90;;;;;;5032396;28;20120;-73
2022/05/16 04:50:27;;;;;;;16.30;4.53;;;13.20;99.90;;;;;;5033691;28;20103;-72
2022/05/16 04:52:53;;;;;;;18.70;4.13;;;13.30;99.90;;;;;;5034580;28;20034;-73
2022/05/16 04:55:20;;;;;;;13.13;3.45;;;13.30;99.90;;;;;;5034879;28;20050;-72
2022/05/16 04:57:46;;;;;;;14.23;3.72;;;13.40;99.90;;;;;;5034198;28;20399;-72
2022/05/16 05:00:13;;;;;;;14.80;4.60;;;13.40;99.90;;;;;;5038331;28;20041;-73
2022/05/16 05:02:40;;;;;;;13.90;3.45;;;13.50;99.90;;;;;;5040954;28;20083;-73
2022/05/16 05:05:07;;;;;;;10.80;3.58;;;13.50;99.90;;;;;;5035424;28;20044;-73
2022/05/16 05:07:34;;;;;;;19.90;3.58;;;13.60;99.90;;;;;;5036198;28;20038;-74
2022/05/16 05:15:28;;;;;;;12.50;3.58;;;13.70;99.90;;;;;;5036760;28;20084;-74
2022/05/16 05:17:54;;;;;;;14.90;3.30;;;13.80;99.90;;;;;;5037220;28;20025;-75
2022/05/16 05:20:19;;;;;;;10.45;3.08;;;13.80;99.90;;;;;;5046299;28;20041;-75
2022/05/16 05:22:47;;;;;;;13.82;3.67;;;13.90;99.90;;;;;;5039798;28;20025;-74
2022/05/16 05:25:17;;;;;;;9.68;3.08;;;14.00;99.90;;;;;;5036011;28;20042;-74
2022/05/16 05:27:44;;;;;;;12.43;3.28;;;13.90;99.90;;;;;;5033929;28;20030;-73
2022/05/16 05:30:15;;;;;;;20.48;3.88;;;14.10;99.90;;;;;;5032626;28;20104;-73
2022/05/16 05:32:42;;;;;;;14.88;3.17;;;14.20;99.90;;;;;;5038577;28;20105;-73
2022/05/16 05:35:09;;;;;;;15.80;4.10;;;14.30;99.90;;;;;;5036007;28;20056;-74
2022/05/16 05:37:35;;;;;;;12.40;3.47;;;14.40;99.90;;;;;;5034104;28;20386;-74
2022/05/16 05:40:01;;;;;;;15.00;3.38;;;14.40;99.90;;;;;;5034390;28;20025;-72
2022/05/16 05:42:31;;;;;;;9.82;2.80;;;14.40;99.90;;;;;;5036650;28;20391;-74
2022/05/16 05:44:58;;;;;;;16.17;3.53;;;14.50;99.90;;;;;;5040091;28;20029;-75
2022/05/16 05:47:24;;;;;;;11.93;3.20;;;14.50;99.90;;;;;;5037696;28;20033;-74
2022/05/16 05:49:50;;;;;;;13.07;3.72;;;14.60;99.90;;;;;;5038045;28;20025;-74
2022/05/16 05:52:16;;;;;;;15.48;3.92;;;14.60;99.90;;;;;;5037233;28;20017;-75
2022/05/16 05:54:43;;;;;;;9.27;2.80;;;14.60;99.90;;;;;;5036237;28;20024;-73
2022/05/16 05:57:09;;;;;;;17.98;3.78;;;14.70;99.90;;;;;;5037376;28;20030;-73
2022/05/16 05:59:35;;;;;;;11.40;2.83;;;14.80;99.90;;;;;;5040408;28;20025;-73
2022/05/16 06:02:00;;;;;;;11.98;3.25;;;14.80;99.90;;;;;;5036314;28;20072;-73
2022/05/16 06:04:26;;;;;;;17.63;3.55;;;14.90;99.90;;;;;;5037011;28;20026;-74
2022/05/16 06:06:51;;;;;;;13.85;3.05;;;14.90;99.90;;;;;;5034920;28;20074;-74
2022/05/16 06:09:17;;;;;;;16.17;3.75;;;14.90;99.90;;;;;;5035449;28;20390;-72
2022/05/16 06:11:42;;;;;;;11.95;3.58;;;15.00;99.90;;;;;;5037775;28;20056;-73
2022/05/16 06:14:08;;;;;;;14.45;3.60;;;15.10;99.90;;;;;;5039941;28;20018;-72
2022/05/16 06:16:33;;;;;;;12.30;3.10;;;15.20;99.90;;;;;;5035070;28;20486;-73
2022/05/16 06:18:59;;;;;;;11.82;3.00;;;15.20;99.90;;;;;;5037039;28;20463;-73
2022/05/16 06:21:25;;;;;;;15.13;3.50;;;15.30;99.90;;;;;;5037470;28;20570;-73
2022/05/16 06:23:50;;;;;;;12.30;3.30;;;15.40;99.90;;;;;;5035810;28;20155;-73
2022/05/16 06:26:16;;;;;;;14.63;3.72;;;15.40;99.90;;;;;;5035487;28;20068;-72
2022/05/16 06:28:42;;;;;;;17.40;3.78;;;15.50;99.90;;;;;;5036846;28;20121;-72
2022/05/16 06:31:08;;;;;;;12.18;3.33;;;15.60;99.90;;;;;;5036393;28;20105;-72
2022/05/16 06:33:34;;;;;;;13.05;3.40;;;15.70;99.90;;;;;;5034965;28;20048;-72
2022/05/16 06:36:00;;;;;;;12.70;3.50;;;15.70;99.90;;;;;;5035875;28;20101;-72
2022/05/16 06:38:29;;;;;;;14.57;3.50;;;15.80;99.90;;;;;;5035311;28;20549;-71
2022/05/16 06:40:56;;;;;;;19.02;3.75;;;15.90;99.90;;;;;;5039351;28;20037;-72
2022/05/16 06:43:24;;;;;;;16.70;3.67;;;16.00;99.90;;;;;;5036421;28;20021;-72
2022/05/16 06:45:51;;;;;;;17.27;3.70;;;16.10;99.90;;;;;;5036058;28;20026;-74
2022/05/16 06:48:17;;;;;;;14.00;3.20;;;16.10;99.90;;;;;;5034621;28;20113;-72
2022/05/16 06:50:44;;;;;;;9.60;3.70;;;16.20;99.90;;;;;;5037075;28;20014;-73
2022/05/16 06:53:15;;;;;;;11.50;3.70;;;16.30;99.90;;;;;;5034884;28;20100;-72
2022/05/16 06:55:41;;;;;;;12.40;3.33;;;16.30;99.90;;;;;;5036194;28;20021;-73
2022/05/16 06:58:07;;;;;;;12.57;3.15;;;16.40;99.90;;;;;;5036867;28;20117;-72
2022/05/16 07:00:32;;;;;;;10.48;2.97;;;16.40;99.90;;;;;;5034305;28;20160;-72
2022/05/16 07:02:58;;;;;;;18.50;3.67;;;16.50;99.90;;;;;;5034718;28;20091;-72
2022/05/16 07:05:24;;;;;;;15.52;3.63;;;16.60;99.90;;;;;;5038951;28;20029;-72
2022/05/16 07:07:51;;;;;;;14.68;3.25;;;16.70;99.90;;;;;;5040169;28;20052;-73
2022/05/16 07:10:16;;;;;;;13.77;3.55;;;16.80;99.90;;;;;;5037425;28;20076;-73
2022/05/16 07:12:42;;;;;;;13.95;3.72;;;17.00;99.90;;;;;;5035622;28;20062;-74
2022/05/16 07:15:08;;;;;;;10.45;3.05;;;17.10;99.90;;;;;;5036444;28;20022;-73
2022/05/16 07:17:34;;;;;;;13.60;3.28;;;17.20;99.90;;;;;;5034723;28;20124;-74
2022/05/16 07:19:59;;;;;;;15.35;3.83;;;17.40;99.90;;;;;;5033815;28;20061;-74
2022/05/16 07:22:25;;;;;;;13.77;3.40;;;17.60;99.90;;;;;;5033908;28;20052;-73
2022/05/16 07:24:55;;;;;;;13.52;3.20;;;17.70;99.90;;;;;;5033932;28;20101;-73
2022/05/16 07:30:07;;;;;;;12.45;3.45;;;17.90;99.90;;;;;;5035312;28;20029;-74
2022/05/16 07:32:41;;;;;;;12.00;3.15;;;18.00;99.90;;;;;;5033627;28;20125;-75
2022/05/16 07:35:10;;;;;;;14.45;3.10;;;18.20;99.90;;;;;;5034238;28;20029;-75
2022/05/16 07:37:35;;;;;;;13.63;2.90;;;18.30;99.90;;;;;;5034184;28;20375;-82
2022/05/16 07:40:01;;;;;;;13.43;3.60;;;18.30;99.90;;;;;;5033962;28;20040;-73
2022/05/16 07:42:26;;;;;;;10.05;3.05;;;18.50;99.90;;;;;;5033677;28;20619;-73
2022/05/16 07:44:53;;;;;;;10.18;2.83;;;18.60;99.90;;;;;;5032356;28;20501;-74
2022/05/16 07:47:18;;;;;;;12.00;3.47;;;18.80;99.90;;;;;;5033809;28;20462;-73
2022/05/16 07:49:44;;;;;;;13.07;3.38;;;18.80;99.90;;;;;;5033411;28;20017;-74
2022/05/16 07:52:10;;;;;;;11.65;2.90;;;18.90;99.90;;;;;;5040955;28;20023;-74
2022/05/16 07:54:37;;;;;;;12.93;3.78;;;19.00;99.90;;;;;;5039891;28;20051;-73
2022/05/16 07:57:04;;;;;;;10.00;2.88;;;19.10;99.90;;;;;;5032887;28;20021;-74
2022/05/16 07:59:29;;;;;;;13.77;3.05;;;19.20;99.90;;;;;;5032856;28;20022;-72
2022/05/16 08:01:55;;;;;;;9.77;3.10;;;19.30;99.90;;;;;;5032969;28;20164;-73
2022/05/16 08:04:21;;;;;;;9.68;3.22;;;19.30;99.90;;;;;;5034522;28;20065;-72
2022/05/16 08:06:47;;;;;;;13.23;4.65;;;19.40;99.90;;;;;;5033029;28;20036;-75
2022/05/16 08:11:57;;;;;;;11.82;3.53;;;19.40;99.90;;;;;;5032987;28;20505;-74
2022/05/16 08:14:23;;;;;;;11.60;3.05;;;19.40;99.90;;;;;;5032833;28;20041;-75
2022/05/16 08:16:49;;;;;;;14.60;3.53;;;19.40;99.90;;;;;;5031995;28;20022;-74
2022/05/16 08:19:15;;;;;;;15.45;3.22;;;19.50;99.90;;;;;;5033972;28;20545;-76
2022/05/16 08:21:42;;;;;;;9.80;3.70;;;19.60;99.90;;;;;;5036438;28;20036;-72
2022/05/16 08:24:09;;;;;;;10.82;3.70;;;19.70;99.90;;;;;;5034722;28;20442;-73
2022/05/16 08:26:35;;;;;;;13.25;3.60;;;19.80;99.90;;;;;;5036775;28;20026;-72
2022/05/16 08:29:01;;;;;;;14.77;3.20;;;19.90;99.90;;;;;;5048964;28;20109;-75
2022/05/16 08:31:28;;;;;;;9.88;2.83;;;20.00;99.90;;;;;;5045242;28;20017;-74
2022/05/16 08:33:55;;;;;;;11.77;3.08;;;20.10;99.90;;;;;;5033988;28;20529;-74
2022/05/16 08:41:59;;;;;;;11.70;3.40;;;20.50;99.90;;;;;;5038294;28;20055;-73
2022/05/16 08:45:00;;;;;;;11.70;5.18;;;20.70;99.90;;;;;;5035152;28;20549;-73
2022/05/16 08:47:43;;;;;;;9.65;3.03;;;20.90;99.90;;;;;;5035070;28;20506;-77
2022/05/16 08:50:19;;;;;;;19.23;7.47;;;21.00;99.90;;;;;;5031979;28;20033;-74
2022/05/16 08:52:51;;;;;;;13.77;3.53;;;21.20;99.90;;;;;;5036304;28;20411;-76
2022/05/16 08:55:25;;;;;;;12.55;3.42;;;21.30;99.90;;;;;;5032312;28;20028;-75
2022/05/16 08:58:04;;;;;;;12.27;3.00;;;21.30;99.90;;;;;;5035666;28;20030;-73
2022/05/16 09:00:53;;;;;;;8.75;3.15;;;21.50;99.90;;;;;;5033596;28;20104;-75
2022/05/16 09:03:24;;;;;;;13.80;3.13;;;21.60;99.90;;;;;;5032656;28;20112;-72
2022/05/16 09:05:59;;;;;;;13.93;3.17;;;21.70;99.90;;;;;;5034202;28;20033;-72
2022/05/16 09:08:46;;;;;;;7.95;2.88;;;21.70;99.30;;;;;;5034351;28;20459;-73
2022/05/16 09:11:37;;;;;;;12.48;2.60;;;21.60;99.20;;;;;;5035045;28;20026;-74
2022/05/16 09:14:07;;;;;;;7.63;2.53;;;21.50;99.80;;;;;;5023471;28;20526;-74
2022/05/16 09:16:37;;;;;;;10.35;2.58;;;21.60;99.90;;;;;;5031752;28;20032;-78
2022/05/16 09:19:26;;;;;;;5.15;2.15;;;21.80;99.90;;;;;;5030559;28;20034;-73
2022/05/16 09:22:03;;;;;;;8.55;2.53;;;21.90;98.50;;;;;;5033587;28;20084;-72
2022/05/16 09:24:35;;;;;;;8.75;2.72;;;22.00;98.50;;;;;;5039584;28;20036;-75
2022/05/16 09:30:13;;;;;;;7.97;2.47;;;22.10;98.20;;;;;;5031348;28;20028;-74
2022/05/16 09:32:43;;;;;;;6.30;2.33;;;22.20;97.50;;;;;;5031818;28;20075;-72
2022/05/16 09:35:24;;;;;;;10.65;2.90;;;22.30;97.40;;;;;;5032138;28;20025;-74
2022/05/16 09:37:53;;;;;;;15.45;3.03;;;22.40;97.30;;;;;;5031876;28;20038;-73
2022/05/16 09:40:24;;;;;;;6.40;2.47;;;22.40;96.30;;;;;;5029971;28;20031;-72
2022/05/16 09:42:50;;;;;;;11.13;3.30;;;22.40;95.80;;;;;;5032160;28;20136;-74
2022/05/16 09:45:24;;;;;;;9.05;2.70;;;22.40;95.60;;;;;;5032180;28;20030;-75
2022/05/16 09:47:50;;;;;;;10.63;2.30;;;22.40;95.80;;;;;;5036120;28;20026;-73
2022/05/16 09:50:20;;;;;;;8.88;2.33;;;22.50;96.00;;;;;;5034860;28;20068;-72
2022/05/16 09:53:09;;;;;;;8.38;2.75;;;22.50;95.00;;;;;;5032224;28;20013;-73
2022/05/16 09:55:56;;;;;;;8.85;2.60;;;22.60;95.10;;;;;;5030974;28;20025;-74
2022/05/16 09:58:30;;;;;;;12.70;3.90;;;22.70;94.80;;;;;;5031246;28;20026;-76
2022/05/16 10:00:58;;;;;;;11.80;2.58;;;22.70;94.30;;;;;;5032164;28;20022;-73
2022/05/16 10:03:28;;;;;;;8.48;2.50;;;22.80;94.50;;;;;;5031728;28;20112;-73
2022/05/16 10:05:55;;;;;;;8.40;2.45;;;23.00;94.00;;;;;;5030564;28;20025;-73
2022/05/16 10:08:49;;;;;;;9.25;2.60;;;23.10;93.90;;;;;;5032734;28;20022;-73
2022/05/16 10:11:24;;;;;;;8.97;2.37;;;23.30;93.80;;;;;;5024396;28;20109;-73
2022/05/16 10:13:51;;;;;;;10.02;2.20;;;23.50;92.80;;;;;;5031691;28;20034;-73
2022/05/16 10:16:18;;;;;;;9.15;2.40;;;23.60;91.80;;;;;;5031443;28;20034;-74
2022/05/16 10:18:56;;;;;;;12.35;2.67;;;23.60;91.90;;;;;;5031061;28;20041;-73
2022/05/16 10:21:35;;;;;;;7.55;2.72;;;23.60;91.80;;;;;;5031652;28;20029;-72
2022/05/16 10:24:03;;;;;;;9.48;3.72;;;23.60;91.10;;;;;;5034997;28;20642;-73
2022/05/16 10:26:34;;;;;;;8.63;2.88;;;23.80;91.20;;;;;;5032908;28;20075;-73
2022/05/16 10:29:06;;;;;;;11.45;3.65;;;23.80;90.50;;;;;;5032165;28;20018;-72
2022/05/16 10:34:53;;;;;;;8.38;2.38;;;24.20;89.90;;;;;;5035841;28;20131;-74
2022/05/16 10:37:20;;;;;;;9.32;3.10;;;24.30;89.00;;;;;;5043708;28;20032;-77
2022/05/16 10:39:51;;;;;;;9.50;3.10;;;24.30;88.10;;;;;;5037256;28;20052;-74
2022/05/16 10:42:47;;;;;;;11.43;2.70;;;24.40;87.70;;;;;;5035667;28;20017;-73
2022/05/16 10:45:18;;;;;;;5.60;2.00;;;24.50;88.10;;;;;;5031085;28;20049;-73
2022/05/16 10:47:50;;;;;;;12.05;2.38;;;24.50;88.00;;;;;;5034491;28;20063;-71
2022/05/16 10:50:28;;;;;;;6.68;2.35;;;24.50;88.60;;;;;;5034594;28;20022;-73
2022/05/16 10:53:04;;;;;;;15.27;2.47;;;24.60;86.60;;;;;;5034958;28;20033;-73
2022/05/16 10:55:58;;;;;;;11.10;2.25;;;24.50;86.30;;;;;;5034306;28;20025;-72
2022/05/16 10:58:24;;;;;;;10.27;2.80;;;24.50;86.50;;;;;;5034257;28;20053;-72
2022/05/16 11:00:57;;;;;;;10.32;2.42;;;24.40;87.10;;;;;;5034687;28;20668;-72
2022/05/16 11:03:37;;;;;;;13.98;2.28;;;24.50;87.20;;;;;;5034462;28;20021;-73
2022/05/16 11:06:05;;;;;;;11.18;3.17;;;24.60;86.60;;;;;;5038190;28;20064;-72
2022/05/16 11:08:55;;;;;;;14.85;3.60;;;24.70;87.40;;;;;;5036967;28;20077;-73
2022/05/16 11:11:50;;;;;;;10.30;2.88;;;24.70;86.00;;;;;;5035935;28;20045;-74
2022/05/16 11:14:39;;;;;;;14.25;3.60;;;24.80;85.80;;;;;;5034644;28;20386;-75
2022/05/16 11:17:22;;;;;;;9.98;3.45;;;25.00;85.40;;;;;;5033970;28;20095;-74
2022/05/16 11:19:55;;;;;;;6.80;2.78;;;25.00;84.60;;;;;;5036162;28;20029;-79
2022/05/16 11:22:41;;;;;;;12.68;2.83;;;25.20;84.50;;;;;;5034074;28;20056;-73
2022/05/16 11:25:39;;;;;;;10.27;2.25;;;25.50;84.50;;;;;;5033443;28;20053;-73
2022/05/16 11:28:34;;;;;;;11.00;4.38;;;25.70;83.20;;;;;;5035972;28;20029;-75
2022/05/16 11:31:13;;;;;;;10.90;2.97;;;26.00;81.40;;;;;;5029504;28;20033;-74
2022/05/16 11:33:48;;;;;;;11.65;2.80;;;26.10;80.70;;;;;;5040207;28;20028;-76
2022/05/16 11:36:36;;;;;;;9.48;2.22;;;26.20;80.30;;;;;;5039868;28;20485;-73
2022/05/16 11:39:05;;;;;;;15.75;2.17;;;26.20;79.00;;;;;;5046280;28;20030;-73
2022/05/16 11:41:45;;;;;;;7.43;2.50;;;26.30;78.30;;;;;;5042982;28;20021;-74
2022/05/16 11:44:28;;;;;;;10.77;2.13;;;26.30;78.70;;;;;;5036958;28;20025;-75
2022/05/16 11:47:26;;;;;;;15.90;3.47;;;26.30;78.30;;;;;;5036247;28;20092;-75
2022/05/16 11:50:06;;;;;;;18.65;2.83;;;26.30;77.90;;;;;;5035635;28;20472;-73
2022/05/16 11:53:10;;;;;;;15.73;2.58;;;26.30;77.80;;;;;;5037804;28;20083;-74
2022/05/16 12:01:33;;;;;;;9.48;2.60;;;26.20;75.10;;;;;;5042769;28;20075;-76
2022/05/16 12:04:11;;;;;;;7.82;3.05;;;26.30;75.10;;;;;;5040773;28;20501;-75
2022/05/16 12:06:50;;;;;;;14.20;2.53;;;26.40;75.30;;;;;;5038193;28;20130;-74
2022/05/16 12:09:19;;;;;;;14.50;3.63;;;26.50;74.70;;;;;;5037948;28;20083;-74
2022/05/16 12:11:57;;;;;;;6.97;1.90;;;26.60;75.10;;;;;;5038056;28;20030;-74
2022/05/16 12:14:28;;;;;;;7.80;2.30;;;26.70;73.40;;;;;;5037177;28;20029;-75
2022/05/16 12:17:17;;;;;;;9.38;2.58;;;26.70;73.20;;;;;;5033998;28;20056;-74
2022/05/16 12:19:46;;;;;;;10.73;2.53;;;26.70;72.80;;;;;;5033392;28;20061;-75
2022/05/16 12:22:32;;;;;;;9.43;2.70;;;26.70;70.90;;;;;;5032354;28;20029;-73
2022/05/16 12:25:29;;;;;;;12.18;2.90;;;26.60;69.50;;;;;;5025723;28;20037;-74
2022/05/16 12:28:23;;;;;;;12.02;2.30;;;26.50;68.90;;;;;;5026638;28;20029;-74
2022/05/16 12:30:54;;;;;;;6.95;2.10;;;26.50;68.60;;;;;;5035846;28;20105;-74
2022/05/16 12:33:23;;;;;;;6.85;2.22;;;26.50;68.80;;;;;;5040209;28;20025;-74
2022/05/16 12:35:51;;;;;;;12.00;2.60;;;26.60;68.70;;;;;;5031892;28;20313;-74
2022/05/16 12:38:21;;;;;;;9.82;2.42;;;26.60;68.40;;;;;;5032404;28;20036;-74
2022/05/16 12:41:44;;;;;;;8.95;3.00;;;26.70;68.70;;;;;;5033526;28;20028;-73
2022/05/16 12:44:22;;;;;;;13.15;2.72;;;26.70;68.20;;;;;;5010714;28;20501;-75
2022/05/16 12:47:21;;;;;;;9.93;2.35;;;26.90;68.10;;;;;;5031268;28;20033;-74
2022/05/16 12:50:18;;;;;;;14.90;2.47;;;26.80;68.00;;;;;;5031891;28;20609;-75
2022/05/16 12:52:49;;;;;;;14.82;2.85;;;27.00;67.60;;;;;;5034767;28;20068;-75
2022/05/16 12:55:31;;;;;;;8.70;2.70;;;27.10;67.10;;;;;;5034660;28;20021;-74
2022/05/16 12:58:24;;;;;;;8.50;3.08;;;27.10;66.70;;;;;;5030916;28;20026;-76
2022/05/16 13:01:13;;;;;;;14.40;2.63;;;27.20;66.10;;;;;;5032079;28;20498;-74
2022/05/16 13:04:00;;;;;;;12.52;3.15;;;27.20;66.60;;;;;;5036122;28;20025;-75
2022/05/16 13:06:45;;;;;;;10.15;2.50;;;27.40;65.80;;;;;;5032298;28;20032;-76
2022/05/16 13:09:11;;;;;;;13.43;2.97;;;27.50;65.60;;;;;;5032445;28;20037;-75
2022/05/16 13:12:02;;;;;;;12.50;2.35;;;;;;;;;;5036384;28;20470;-75
2022/05/16 13:14:39;;;;;;;8.70;2.00;;;27.80;64.70;;;;;;5031960;28;20034;-74
2022/05/16 13:17:10;;;;;;;10.40;2.58;;;27.80;64.90;;;;;;5032193;28;20021;-74
2022/05/16 13:19:43;;;;;;;10.60;3.13;;;27.80;64.80;;;;;;5033391;28;20344;-75
2022/05/16 13:22:18;;;;;;;15.25;2.97;;;27.90;64.90;;;;;;5033092;28;20025;-74
2022/05/16 13:24:44;;;;;;;8.98;3.45;;;28.10;64.30;;;;;;5031961;28;20037;-73
2022/05/16 13:30:08;;;;;;;10.98;2.45;;;28.00;63.70;;;;;;5032069;28;20057;-74
2022/05/16 13:32:35;;;;;;;11.20;2.63;;;28.10;63.50;;;;;;5034942;28;20064;-76
2022/05/16 13:35:07;;;;;;;10.32;3.80;;;28.10;63.00;;;;;;5031679;28;20332;-75
2022/05/16 13:38:03;;;;;;;8.38;3.00;;;28.10;64.00;;;;;;5030939;28;20010;-74
2022/05/16 13:40:38;;;;;;;12.10;2.85;;;28.20;63.50;;;;;;5017309;28;20452;-73